createdAt,value
2019-05-29T00:00:41.341Z,106.19
2019-05-29T00:03:46.495Z,105.87
2019-05-29T00:06:51.930Z,107.35
2019-05-29T00:10:08.994Z,107.18
2019-05-29T00:13:10.077Z,106.76
2019-05-29T00:16:15.525Z,107.13
2019-05-29T00:19:20.683Z,107.72
2019-05-29T00:22:25.926Z,107.59
2019-05-29T00:25:31.090Z,106.88
2019-05-29T00:28:36.933Z,107.20
2019-05-29T00:31:45.815Z,107.67
2019-05-29T00:34:51.003Z,107.25
2019-05-29T00:37:56.225Z,107.26
2019-05-29T00:41:01.497Z,107.55
2019-05-29T00:44:07.075Z,108.91
2019-05-29T00:47:14.018Z,108.52
2019-05-29T00:50:27.041Z,109.89
2019-05-29T00:53:32.176Z,110.04
2019-05-29T00:56:37.431Z,110.59
2019-05-29T00:59:42.579Z,110.64
2019-05-29T01:02:49.479Z,111.78
2019-05-29T01:05:56.786Z,111.86
2019-05-29T01:09:01.923Z,111.82
2019-05-29T01:12:08.262Z,112.81
2019-05-29T01:15:15.458Z,113.08
2019-05-29T01:18:28.012Z,112.41
2019-05-29T01:21:33.266Z,112.98
2019-05-29T01:24:38.488Z,112.82
2019-05-29T01:27:43.647Z,113.62
2019-05-29T01:30:51.445Z,114.70
2019-05-29T01:33:55.590Z,114.87
2019-05-29T01:37:00.750Z,114.80
2019-05-29T01:40:19.207Z,115.04
2019-05-29T01:43:15.255Z,115.26
2019-05-29T01:46:22.157Z,115.62
2019-05-29T01:49:28.038Z,116.23
2019-05-29T01:52:35.196Z,115.54
2019-05-29T01:55:40.382Z,114.37
2019-05-29T01:58:46.617Z,115.14
2019-05-29T02:01:51.781Z,116.33
2019-05-29T02:04:56.927Z,116.65
2019-05-29T02:08:02.095Z,116.96
2019-05-29T02:11:08.389Z,116.49
2019-05-29T02:14:13.718Z,116.14
2019-05-29T02:17:19.708Z,115.85
2019-05-29T02:20:25.387Z,116.10
2019-05-29T02:23:30.607Z,116.46
2019-05-29T02:26:35.738Z,116.41
2019-05-29T02:29:40.911Z,116.52
2019-05-29T02:32:47.304Z,116.92
2019-05-29T02:35:54.652Z,116.62
2019-05-29T02:39:04.482Z,116.51
2019-05-29T02:42:09.795Z,117.10
2019-05-29T02:45:15.174Z,117.07
2019-05-29T02:48:23.226Z,117.15
2019-05-29T02:51:30.314Z,117.97
2019-05-29T02:54:35.646Z,117.35
2019-05-29T02:57:40.787Z,117.36
2019-05-29T03:00:58.281Z,117.42
2019-05-29T03:04:03.484Z,117.68
2019-05-29T03:07:08.756Z,118.23
2019-05-29T03:10:13.986Z,118.13
2019-05-29T03:13:19.436Z,118.03
2019-05-29T03:16:26.666Z,117.69
2019-05-29T03:19:32.524Z,117.49
2019-05-29T03:22:38.209Z,117.68
2019-05-29T03:25:43.354Z,117.71
2019-05-29T03:28:48.593Z,116.85
2019-05-29T03:31:53.820Z,116.46
2019-05-29T03:35:06.883Z,115.94
2019-05-29T03:38:13.133Z,114.78
2019-05-29T03:41:18.273Z,113.87
2019-05-29T03:44:23.558Z,113.59
2019-05-29T03:47:28.865Z,113.01
2019-05-29T03:50:34.934Z,112.11
2019-05-29T03:53:40.165Z,111.62
2019-05-29T03:56:46.437Z,110.29
2019-05-29T03:59:51.621Z,109.58
2019-05-29T04:02:56.766Z,107.03
2019-05-29T04:06:02.005Z,93.06
2019-05-29T04:09:13.838Z,85.09
2019-05-29T04:12:18.969Z,82.10
2019-05-29T04:15:25.239Z,75.83
2019-05-29T04:18:33.686Z,72.11
2019-05-29T04:21:41.418Z,66.57
2019-05-29T04:24:57.028Z,59.49
2019-05-29T04:28:00.313Z,59.37
2019-05-29T04:31:05.512Z,59.42
2019-05-29T04:34:11.897Z,61.60
2019-05-29T04:37:17.391Z,55.41
2019-05-29T04:40:22.605Z,58.73
2019-05-29T04:43:28.846Z,56.08
2019-05-29T04:46:35.841Z,55.02
2019-05-29T04:49:41.051Z,56.76
2019-05-29T04:52:46.194Z,56.65
2019-05-29T04:55:51.421Z,50.55
2019-05-29T04:58:56.609Z,48.23
2019-05-29T05:02:01.847Z,45.36
2019-05-29T05:05:07.383Z,47.12
2019-05-29T05:08:12.658Z,47.39
2019-05-29T05:11:19.673Z,43.81
2019-05-29T05:14:24.938Z,41.69
2019-05-29T05:17:33.776Z,42.71
2019-05-29T05:20:40.234Z,47.91
2019-05-29T05:23:45.618Z,43.30
2019-05-29T05:26:51.753Z,45.81
2019-05-29T05:29:56.872Z,45.67
2019-05-29T05:33:02.099Z,45.82
2019-05-29T05:36:07.229Z,45.21
2019-05-29T05:39:12.397Z,44.98
2019-05-29T05:42:17.523Z,41.30
2019-05-29T05:45:22.680Z,41.73
2019-05-29T05:48:27.827Z,40.99
2019-05-29T05:51:33.466Z,39.83
2019-05-29T05:54:39.573Z,40.09
2019-05-29T05:57:45.039Z,43.58
2019-05-29T06:00:52.762Z,42.98
2019-05-29T06:04:00.770Z,42.44
2019-05-29T06:07:05.948Z,44.50
2019-05-29T06:10:11.228Z,41.37
2019-05-29T06:13:16.393Z,36.84
2019-05-29T06:16:21.590Z,44.38
2019-05-29T06:19:28.092Z,37.95
2019-05-29T06:22:38.964Z,39.12
2019-05-29T06:25:44.344Z,37.64
2019-05-29T06:28:49.557Z,36.09
2019-05-29T06:31:54.768Z,42.38
2019-05-29T06:34:59.889Z,41.25
2019-05-29T06:38:06.423Z,35.49
2019-05-29T06:41:11.663Z,39.69
2019-05-29T06:44:21.551Z,39.40
2019-05-29T06:47:26.749Z,43.47
2019-05-29T06:50:31.974Z,45.96
2019-05-29T06:53:37.758Z,47.02
2019-05-29T06:56:44.527Z,47.50
2019-05-29T06:59:49.694Z,48.77
2019-05-29T07:02:54.822Z,49.53
2019-05-29T07:05:59.945Z,48.50
2019-05-29T07:09:06.479Z,50.52
2019-05-29T07:12:11.684Z,53.70
2019-05-29T07:15:17.059Z,48.47
2019-05-29T07:18:33.574Z,48.24
2019-05-29T07:21:30.758Z,52.40
2019-05-29T07:24:41.106Z,50.65
2019-05-29T07:27:47.514Z,51.10
2019-05-29T07:31:00.837Z,51.13
2019-05-29T07:33:59.545Z,49.41
2019-05-29T07:37:04.730Z,49.26
2019-05-29T07:40:10.257Z,50.29
2019-05-29T07:43:15.512Z,57.07
2019-05-29T07:46:20.738Z,57.79
2019-05-29T07:49:38.702Z,55.85
2019-05-29T07:52:43.159Z,54.41
2019-05-29T07:55:44.675Z,56.08
2019-05-29T07:59:01.523Z,57.95
2019-05-29T08:01:58.858Z,54.32
2019-05-29T08:05:04.374Z,52.41
2019-05-29T08:08:09.485Z,52.70
2019-05-29T08:11:14.669Z,55.86
2019-05-29T08:14:19.805Z,60.30
2019-05-29T08:17:24.946Z,54.57
2019-05-29T08:20:30.158Z,56.32
2019-05-29T08:23:35.343Z,56.95
2019-05-29T08:26:48.810Z,54.50
2019-05-29T08:29:49.491Z,53.72
2019-05-29T08:32:57.809Z,53.11
2019-05-29T08:36:02.926Z,55.07
2019-05-29T08:39:12.114Z,53.95
2019-05-29T08:42:23.040Z,55.74
2019-05-29T08:45:24.344Z,53.56
2019-05-29T08:48:29.539Z,48.92
2019-05-29T08:51:34.681Z,48.24
2019-05-29T08:54:39.788Z,48.76
2019-05-29T08:57:46.230Z,53.95
2019-05-29T09:00:55.254Z,53.07
2019-05-29T09:03:59.580Z,50.64
2019-05-29T09:07:06.964Z,48.23
2019-05-29T09:10:13.182Z,49.35
2019-05-29T09:13:18.469Z,47.12
2019-05-29T09:16:23.749Z,47.82
2019-05-29T09:19:29.184Z,47.61
2019-05-29T09:22:35.615Z,48.43
2019-05-29T09:25:40.760Z,49.87
2019-05-29T09:28:45.956Z,50.96
2019-05-29T09:31:51.064Z,52.96
2019-05-29T09:34:56.246Z,46.13
2019-05-29T09:38:01.388Z,48.55
2019-05-29T09:41:06.620Z,50.34
2019-05-29T09:44:28.163Z,50.47
2019-05-29T09:47:20.191Z,48.40
2019-05-29T09:50:27.622Z,47.24
2019-05-29T09:53:32.709Z,46.16
2019-05-29T09:56:39.493Z,50.06
2019-05-29T09:59:47.765Z,49.97
2019-05-29T10:02:53.917Z,49.64
2019-05-29T10:05:59.746Z,48.43
2019-05-29T10:09:07.810Z,48.99
2019-05-29T10:12:12.971Z,49.18
2019-05-29T10:15:18.740Z,47.94
2019-05-29T10:18:32.128Z,46.21
2019-05-29T10:21:40.143Z,45.22
2019-05-29T10:24:37.599Z,45.68
2019-05-29T10:27:46.376Z,45.91
2019-05-29T10:30:52.798Z,45.24
2019-05-29T10:33:59.695Z,45.79
2019-05-29T10:37:05.934Z,47.20
2019-05-29T10:40:11.431Z,45.36
2019-05-29T10:43:33.265Z,43.80
2019-05-29T10:46:23.561Z,45.38
2019-05-29T10:49:29.758Z,48.00
2019-05-29T10:52:36.129Z,46.56
2019-05-29T10:55:41.285Z,45.61
2019-05-29T10:58:53.600Z,44.17
2019-05-29T11:01:57.284Z,46.06
2019-05-29T11:05:07.090Z,45.38
2019-05-29T11:08:09.337Z,46.31
2019-05-29T11:11:14.485Z,43.25
2019-05-29T11:14:19.675Z,45.47
2019-05-29T11:17:24.903Z,49.19
2019-05-29T11:20:30.216Z,48.03
2019-05-29T11:23:35.407Z,43.27
2019-05-29T11:26:41.932Z,48.23
2019-05-29T11:29:48.596Z,46.43
2019-05-29T11:32:56.529Z,46.80
2019-05-29T11:36:10.044Z,46.80
2019-05-29T11:39:09.816Z,46.11
2019-05-29T11:42:26.782Z,44.66
2019-05-29T11:45:23.071Z,45.72
2019-05-29T11:48:28.345Z,43.09
2019-05-29T11:51:33.557Z,45.45
2019-05-29T11:54:38.789Z,44.66
2019-05-29T11:57:44.182Z,45.24
2019-05-29T12:00:49.347Z,43.51
2019-05-29T12:04:24.201Z,44.68
2019-05-29T12:07:01.612Z,44.91
2019-05-29T12:10:07.994Z,42.38
2019-05-29T12:13:13.274Z,41.25
2019-05-29T12:16:18.506Z,43.42
2019-05-29T12:19:24.651Z,43.24
2019-05-29T12:22:33.220Z,43.37
2019-05-29T12:25:38.451Z,42.79
2019-05-29T12:28:45.950Z,42.91
2019-05-29T12:31:51.126Z,43.89
2019-05-29T12:34:58.202Z,44.40
2019-05-29T12:38:03.559Z,42.66
2019-05-29T12:41:08.745Z,43.63
2019-05-29T12:44:15.485Z,46.05
2019-05-29T12:47:20.624Z,47.87
2019-05-29T12:50:27.290Z,50.40
2019-05-29T12:53:32.485Z,50.34
2019-05-29T12:56:37.656Z,52.32
2019-05-29T12:59:45.835Z,51.15
2019-05-29T13:02:51.111Z,48.87
2019-05-29T13:06:00.414Z,47.59
2019-05-29T13:09:08.023Z,51.32
2019-05-29T13:12:13.157Z,53.13
2019-05-29T13:15:18.674Z,55.99
2019-05-29T13:18:25.115Z,56.60
2019-05-29T13:21:30.286Z,54.63
2019-05-29T13:24:35.435Z,56.02
2019-05-29T13:27:47.629Z,56.76
2019-05-29T13:30:55.821Z,50.19
2019-05-29T13:34:02.033Z,54.77
2019-05-29T13:37:09.261Z,55.06
2019-05-29T13:40:14.369Z,54.05
2019-05-29T13:43:19.572Z,53.17
2019-05-29T13:46:24.707Z,53.64
2019-05-29T13:49:29.931Z,49.90
2019-05-29T13:52:36.095Z,50.47
2019-05-29T13:55:46.242Z,46.47
2019-05-29T13:58:54.620Z,44.57
2019-05-29T14:01:58.517Z,44.95
2019-05-29T14:05:04.697Z,46.17
2019-05-29T14:08:10.046Z,43.73
2019-05-29T14:11:15.163Z,43.58
2019-05-29T14:14:21.716Z,46.72
2019-05-29T14:17:26.831Z,43.26
2019-05-29T14:20:32.005Z,42.63
2019-05-29T14:23:39.666Z,41.57
2019-05-29T14:26:45.670Z,42.39
2019-05-29T14:29:50.827Z,42.19
2019-05-29T14:32:56.041Z,42.03
2019-05-29T14:36:03.243Z,40.54
2019-05-29T14:39:09.959Z,40.15
2019-05-29T14:42:19.504Z,41.50
2019-05-29T14:45:24.747Z,42.34
2019-05-29T14:48:29.887Z,41.86
2019-05-29T14:51:35.088Z,41.57
2019-05-29T14:54:42.103Z,43.68
2019-05-29T14:57:47.167Z,44.62
2019-05-29T15:00:52.353Z,41.30
2019-05-29T15:03:57.511Z,43.75
2019-05-29T15:07:03.742Z,40.19
2019-05-29T15:10:22.771Z,41.17
2019-05-29T15:13:16.365Z,45.86
2019-05-29T15:16:22.710Z,46.43
2019-05-29T15:19:32.649Z,47.12
2019-05-29T15:22:40.284Z,51.90
2019-05-29T15:25:45.866Z,50.61
2019-05-29T15:28:51.697Z,47.72
2019-05-29T15:35:28.500Z,44.83
2019-05-29T15:38:33.695Z,47.59
2019-05-29T15:41:38.816Z,44.08
2019-05-29T15:44:44.067Z,44.14
2019-05-29T15:47:49.360Z,44.72
2019-05-29T15:50:56.104Z,44.49
2019-05-29T15:54:01.268Z,43.84
2019-05-29T15:57:08.960Z,42.08
2019-05-29T16:00:15.601Z,39.45
2019-05-29T16:03:21.074Z,41.12
2019-05-29T16:06:26.191Z,40.50
2019-05-29T16:09:31.409Z,44.01
2019-05-29T16:12:36.598Z,41.72
2019-05-29T16:15:41.711Z,41.67
2019-05-29T16:18:46.869Z,42.58
2019-05-29T16:21:52.015Z,46.73
2019-05-29T16:24:57.145Z,43.99
2019-05-29T16:28:02.271Z,42.03
2019-05-29T16:31:07.368Z,42.44
2019-05-29T16:34:14.378Z,43.50
2019-05-29T16:37:19.408Z,43.35
2019-05-29T16:40:24.697Z,42.08
2019-05-29T16:43:29.797Z,44.81
2019-05-29T16:46:35.103Z,45.01
2019-05-29T16:49:40.296Z,44.95
2019-05-29T16:52:45.471Z,43.05
2019-05-29T16:55:54.643Z,48.91
2019-05-29T16:59:00.142Z,42.79
2019-05-29T17:02:05.381Z,43.51
2019-05-29T17:05:10.813Z,47.16
2019-05-29T17:08:16.070Z,47.13
2019-05-29T17:11:23.407Z,47.49
2019-05-29T17:14:28.104Z,44.12
2019-05-29T17:17:33.311Z,48.20
2019-05-29T17:20:42.930Z,43.94
2019-05-29T17:23:48.103Z,46.51
2019-05-29T17:26:53.270Z,42.24
2019-05-29T17:29:58.468Z,41.83
2019-05-29T17:33:03.683Z,47.34
2019-05-29T17:36:09.029Z,45.85
2019-05-29T17:39:15.252Z,44.33
2019-05-29T17:42:20.941Z,46.45
2019-05-29T17:45:27.443Z,44.30
2019-05-29T17:48:33.402Z,47.23
2019-05-29T17:51:38.617Z,44.44
2019-05-29T17:54:43.830Z,46.42
2019-05-29T17:57:49.128Z,42.97
2019-05-29T18:00:54.593Z,42.02
2019-05-29T18:03:59.871Z,45.84
2019-05-29T18:07:05.036Z,47.23
2019-05-29T18:10:10.367Z,48.99
2019-05-29T18:13:16.877Z,47.91
2019-05-29T18:16:23.417Z,50.72
2019-05-29T18:19:28.823Z,52.28
2019-05-29T18:22:33.981Z,52.47
2019-05-29T18:25:39.186Z,52.38
2019-05-29T18:28:44.353Z,54.58
2019-05-29T18:31:49.423Z,55.67
2019-05-29T18:34:56.560Z,57.84
2019-05-29T18:38:01.520Z,62.29
2019-05-29T18:41:06.871Z,65.97
2019-05-29T18:44:12.121Z,64.12
2019-05-29T18:47:17.388Z,64.01
2019-05-29T18:50:23.483Z,62.21
2019-05-29T18:53:28.927Z,65.90
2019-05-29T18:56:34.153Z,64.06
2019-05-29T18:59:39.379Z,65.58
2019-05-29T19:02:44.613Z,64.55
2019-05-29T19:05:49.765Z,68.66
2019-05-29T19:08:54.993Z,64.26
2019-05-29T19:12:00.233Z,63.47
2019-05-29T19:15:06.177Z,65.80
2019-05-29T19:18:12.230Z,65.03
2019-05-29T19:21:17.568Z,67.10
2019-05-29T19:24:22.671Z,68.77
2019-05-29T19:27:33.228Z,66.57
2019-05-29T19:30:34.826Z,68.25
2019-05-29T19:33:40.085Z,69.50
2019-05-29T19:36:45.425Z,67.34
2019-05-29T19:39:50.987Z,70.05
2019-05-29T19:42:56.297Z,71.83
2019-05-29T19:46:01.502Z,72.44
2019-05-29T19:49:06.704Z,74.48
2019-05-29T19:52:11.879Z,73.93
2019-05-29T19:55:17.121Z,70.69
2019-05-29T19:58:22.418Z,67.57
2019-05-29T20:01:32.838Z,69.09
2019-05-29T20:04:34.764Z,68.86
2019-05-29T20:07:39.953Z,72.14
2019-05-29T20:10:45.114Z,72.49
2019-05-29T20:13:50.293Z,71.52
2019-05-29T20:16:55.477Z,71.98
2019-05-29T20:20:00.636Z,65.92
2019-05-29T20:23:05.773Z,69.75
2019-05-29T20:26:10.958Z,68.41
2019-05-29T20:29:17.481Z,67.50
2019-05-29T20:32:22.679Z,64.29
2019-05-29T20:35:27.826Z,67.55
2019-05-29T20:38:33.257Z,70.38
2019-05-29T20:41:41.451Z,64.48
2019-05-29T20:44:46.468Z,65.76
2019-05-29T20:47:51.727Z,62.39
2019-05-29T20:50:59.286Z,62.52
2019-05-29T20:54:05.042Z,63.48
2019-05-29T20:57:13.038Z,63.95
2019-05-29T21:00:19.207Z,64.38
2019-05-29T21:03:24.459Z,65.34
2019-05-29T21:06:29.629Z,65.85
2019-05-29T21:09:34.890Z,64.90
2019-05-29T21:12:44.050Z,66.38
2019-05-29T21:15:46.975Z,64.15
2019-05-29T21:18:52.183Z,66.41
2019-05-29T21:21:57.350Z,66.33
2019-05-29T21:25:07.574Z,68.34
2019-05-29T21:28:09.468Z,71.38
2019-05-29T21:31:16.244Z,70.31
2019-05-29T21:34:21.417Z,68.94
2019-05-29T21:37:26.667Z,68.11
2019-05-29T21:40:31.874Z,67.32
2019-05-29T21:43:37.075Z,67.37
2019-05-29T21:46:43.056Z,67.93
2019-05-29T21:49:48.281Z,68.66
2019-05-29T21:52:53.418Z,71.05
2019-05-29T21:55:58.574Z,71.21
2019-05-29T21:59:04.422Z,70.24
2019-05-29T22:02:10.605Z,69.17
2019-05-29T22:05:15.974Z,68.10
2019-05-29T22:08:21.182Z,69.91
2019-05-29T22:11:26.427Z,70.03
2019-05-29T22:14:31.593Z,70.09
2019-05-29T22:17:36.712Z,70.44
2019-05-29T22:20:41.945Z,68.74
2019-05-29T22:23:47.117Z,70.20
2019-05-29T22:26:53.150Z,68.62
2019-05-29T22:29:59.428Z,70.36
2019-05-29T22:33:05.127Z,73.52
2019-05-29T22:36:10.259Z,72.51
2019-05-29T22:39:15.524Z,73.48
2019-05-29T22:42:20.784Z,74.68
2019-05-29T22:45:27.638Z,74.82
2019-05-29T22:48:32.804Z,73.27
2019-05-29T22:51:37.964Z,71.46
2019-05-29T22:54:43.368Z,74.48
2019-05-29T22:57:48.512Z,73.61
2019-05-29T23:00:54.062Z,75.70
2019-05-29T23:04:00.260Z,74.39
2019-05-29T23:07:05.554Z,72.17
2019-05-29T23:10:11.063Z,69.86
2019-05-29T23:13:16.265Z,70.66
2019-05-29T23:16:21.503Z,72.14
2019-05-29T23:19:26.664Z,69.70
2019-05-29T23:22:31.837Z,71.37
2019-05-29T23:25:37.002Z,69.77
2019-05-29T23:28:42.158Z,71.78
2019-05-29T23:31:47.283Z,72.97
2019-05-29T23:34:52.931Z,70.79
2019-05-29T23:37:59.175Z,70.98
2019-05-29T23:41:04.502Z,71.85
2019-05-29T23:44:09.710Z,72.24
2019-05-29T23:47:14.939Z,71.83
2019-05-29T23:50:20.105Z,71.39
2019-05-29T23:53:27.217Z,71.30
2019-05-29T23:56:32.165Z,72.30
2019-05-29T23:59:37.315Z,72.95
